createdAt,value
2022-12-14T00:01:42.178Z,99691.88
2022-12-14T00:04:15.683Z,99693.78
2022-12-14T00:06:42.614Z,99690.50
2022-12-14T00:09:09.627Z,99695.16
2022-12-14T00:11:36.408Z,99686.38
2022-12-14T00:14:05.080Z,99686.66
2022-12-14T00:16:34.610Z,99685.94
2022-12-14T00:19:02.723Z,99688.66
2022-12-14T00:21:29.586Z,99693.31
2022-12-14T00:23:59.390Z,99685.50
2022-12-14T00:26:30.294Z,99692.59
2022-12-14T00:28:57.652Z,99693.66
2022-12-14T00:31:26.005Z,99685.81
2022-12-14T00:33:53.247Z,99693.00
2022-12-14T00:36:20.602Z,99693.22
2022-12-14T00:38:47.908Z,99692.44
2022-12-14T00:41:14.825Z,99694.34
2022-12-14T00:43:41.861Z,99686.63
2022-12-14T00:46:09.097Z,99692.22
2022-12-14T00:48:36.319Z,99693.28
2022-12-14T00:51:03.906Z,99691.78
2022-12-14T00:53:31.304Z,99694.53
2022-12-14T00:56:05.423Z,99702.75
2022-12-14T00:58:32.363Z,99695.78
2022-12-14T01:01:02.672Z,99704.78
2022-12-14T01:03:30.454Z,99700.44
2022-12-14T01:05:57.645Z,99702.41
2022-12-14T01:08:25.166Z,99702.63
2022-12-14T01:10:52.534Z,99707.16
2022-12-14T01:13:19.806Z,99698.47
2022-12-14T01:15:47.153Z,99703.88
2022-12-14T01:18:14.453Z,99699.63
2022-12-14T01:20:41.285Z,99703.22
2022-12-14T01:23:08.076Z,99701.72
2022-12-14T01:25:35.219Z,99694.00
2022-12-14T01:28:02.118Z,99695.25
2022-12-14T01:30:29.058Z,99701.38
2022-12-14T01:32:55.962Z,99705.91
2022-12-14T01:35:22.823Z,99707.81
2022-12-14T01:37:49.665Z,99705.56
2022-12-14T01:40:17.082Z,99702.16
2022-12-14T01:42:43.904Z,99708.56
2022-12-14T01:45:22.673Z,99710.69
2022-12-14T01:47:58.307Z,99709.94
2022-12-14T01:50:33.118Z,99706.53
2022-12-14T01:53:07.217Z,99712.94
2022-12-14T01:55:38.760Z,99712.19
2022-12-14T01:58:20.672Z,99714.81
2022-12-14T02:00:49.642Z,99714.06
2022-12-14T02:03:28.885Z,99706.38
2022-12-14T02:06:29.548Z,99716.34
2022-12-14T02:08:57.807Z,99716.16
2022-12-14T02:11:35.347Z,99717.19
2022-12-14T02:14:02.126Z,99723.44
2022-12-14T02:16:29.326Z,99723.72
2022-12-14T02:18:56.137Z,99721.16
2022-12-14T02:21:36.902Z,99730.88
2022-12-14T02:24:46.947Z,99717.97
2022-12-14T02:27:56.573Z,99720.72
2022-12-14T02:30:26.612Z,99720.88
2022-12-14T02:33:05.927Z,99710.31
2022-12-14T02:35:40.760Z,99710.53
2022-12-14T02:38:35.322Z,99716.00
2022-12-14T02:41:39.406Z,99711.09
2022-12-14T02:44:15.687Z,99717.31
2022-12-14T02:47:09.633Z,99712.19
2022-12-14T02:50:34.940Z,99724.75
2022-12-14T02:53:25.467Z,99715.88
2022-12-14T02:55:54.530Z,99714.28
2022-12-14T02:58:28.726Z,99720.59
2022-12-14T03:00:56.807Z,99714.56
2022-12-14T03:03:23.954Z,99717.41
2022-12-14T03:06:04.744Z,99714.09
2022-12-14T03:08:35.756Z,99715.09
2022-12-14T03:11:06.021Z,99713.50
2022-12-14T03:13:50.005Z,99714.63
2022-12-14T03:16:23.168Z,99712.75
2022-12-14T03:19:22.753Z,99719.09
2022-12-14T03:21:56.535Z,99709.53
2022-12-14T03:24:34.875Z,99704.47
2022-12-14T03:27:12.740Z,99701.91
2022-12-14T03:29:48.260Z,99710.00
2022-12-14T03:32:23.500Z,99709.25
2022-12-14T03:35:19.501Z,99712.94
2022-12-14T03:37:56.240Z,99708.56
2022-12-14T03:40:53.514Z,99703.63
2022-12-14T03:43:38.513Z,99702.00
2022-12-14T03:46:23.105Z,99710.66
2022-12-14T03:48:56.642Z,99705.59
2022-12-14T03:51:52.429Z,99703.88
2022-12-14T03:54:37.527Z,99712.75
2022-12-14T03:57:24.910Z,99711.03
2022-12-14T04:00:10.306Z,99704.25
2022-12-14T04:03:14.513Z,99704.25
2022-12-14T04:06:07.736Z,99708.75
2022-12-14T04:08:43.561Z,99708.09
2022-12-14T04:11:32.426Z,99709.22
2022-12-14T04:14:43.934Z,99710.59
2022-12-14T04:17:38.720Z,99715.03
2022-12-14T04:20:17.147Z,99707.03
2022-12-14T04:22:57.952Z,99713.81
2022-12-14T04:25:50.997Z,99708.69
2022-12-14T04:28:55.211Z,99711.78
2022-12-14T04:31:28.438Z,99723.22
2022-12-14T04:33:59.550Z,99721.00
2022-12-14T04:36:52.192Z,99725.50
2022-12-14T04:39:47.387Z,99724.50
2022-12-14T04:42:16.918Z,99722.09
2022-12-14T04:44:50.046Z,99727.97
2022-12-14T04:47:18.419Z,99729.84
2022-12-14T04:50:01.092Z,99720.06
2022-12-14T04:52:36.622Z,99719.13
2022-12-14T04:55:19.788Z,99720.75
2022-12-14T04:58:10.265Z,99731.13
2022-12-14T05:00:56.650Z,99725.94
2022-12-14T05:03:33.463Z,99723.22
2022-12-14T05:06:22.708Z,99722.84
2022-12-14T05:09:39.386Z,99719.69
2022-12-14T05:12:21.705Z,99721.56
2022-12-14T05:15:06.283Z,99725.19
2022-12-14T05:17:43.031Z,99726.09
2022-12-14T05:20:20.688Z,99720.06
2022-12-14T05:22:47.739Z,99719.63
2022-12-14T05:25:14.569Z,99717.81
2022-12-14T05:27:41.611Z,99729.13
2022-12-14T05:30:10.148Z,99726.28
2022-12-14T05:32:36.907Z,99733.28
2022-12-14T05:35:05.261Z,99731.41
2022-12-14T05:37:32.390Z,99736.69
2022-12-14T05:39:59.182Z,99734.03
2022-12-14T05:42:26.310Z,99748.13
2022-12-14T05:44:53.076Z,99744.44
2022-12-14T05:47:19.859Z,99743.84
2022-12-14T05:49:46.847Z,99736.50
2022-12-14T05:52:16.951Z,99728.69
2022-12-14T05:54:43.926Z,99739.81
2022-12-14T05:57:10.819Z,99747.81
2022-12-14T05:59:37.681Z,99744.44
2022-12-14T06:02:05.664Z,99752.53
2022-12-14T06:04:33.350Z,99751.31
2022-12-14T06:07:00.205Z,99747.38
2022-12-14T06:09:27.144Z,99754.63
2022-12-14T06:11:56.969Z,99756.50
2022-12-14T06:14:24.571Z,99759.59
2022-12-14T06:16:51.567Z,99762.31
2022-12-14T06:19:19.142Z,99752.34
2022-12-14T06:21:46.208Z,99753.28
2022-12-14T06:24:13.988Z,99747.00
2022-12-14T06:26:41.904Z,99751.50
2022-12-14T06:29:16.106Z,99746.22
2022-12-14T06:31:42.926Z,99753.03
2022-12-14T06:34:11.429Z,99750.38
2022-12-14T06:36:42.200Z,99738.59
2022-12-14T06:39:14.199Z,99734.66
2022-12-14T06:41:41.541Z,99735.00
2022-12-14T06:44:12.624Z,99735.59
2022-12-14T06:46:40.119Z,99735.97
2022-12-14T06:49:07.919Z,99745.69
2022-12-14T06:51:42.311Z,99744.19
2022-12-14T06:54:12.062Z,99744.19
2022-12-14T06:56:39.958Z,99742.47
2022-12-14T06:59:08.791Z,99736.56
2022-12-14T07:01:37.126Z,99743.34
2022-12-14T07:04:05.178Z,99745.03
2022-12-14T07:06:36.614Z,99740.88
2022-12-14T07:09:06.398Z,99746.06
2022-12-14T07:11:33.589Z,99743.41
2022-12-14T07:14:01.357Z,99752.56
2022-12-14T07:16:29.938Z,99745.31
2022-12-14T07:18:56.830Z,99759.94
2022-12-14T07:21:24.397Z,99768.88
2022-12-14T07:23:54.712Z,99761.41
2022-12-14T07:26:25.562Z,99760.19
2022-12-14T07:28:53.075Z,99758.44
2022-12-14T07:31:24.601Z,99762.00
2022-12-14T07:33:57.059Z,99767.78
2022-12-14T07:36:26.704Z,99771.06
2022-12-14T07:38:55.945Z,99771.84
2022-12-14T07:41:31.180Z,99774.28
2022-12-14T07:44:01.482Z,99774.28
2022-12-14T07:46:30.504Z,99770.88
2022-12-14T07:48:59.044Z,99781.44
2022-12-14T07:51:36.608Z,99781.34
2022-12-14T07:54:06.429Z,99788.59
2022-12-14T07:56:39.831Z,99791.63
2022-12-14T07:59:09.936Z,99790.78
2022-12-14T08:01:38.167Z,99784.66
2022-12-14T08:04:11.276Z,99785.59
2022-12-14T08:06:39.983Z,99792.50
2022-12-14T08:09:10.065Z,99789.28
2022-12-14T08:11:37.852Z,99794.25
2022-12-14T08:14:14.519Z,99797.09
2022-12-14T08:16:41.382Z,99806.16
2022-12-14T08:19:08.547Z,99812.41
2022-12-14T08:21:35.486Z,99801.44
2022-12-14T08:24:02.366Z,99803.72
2022-12-14T08:26:35.297Z,99802.41
2022-12-14T08:29:03.812Z,99797.28
2022-12-14T08:31:31.550Z,99809.09
2022-12-14T08:33:59.788Z,99807.28
2022-12-14T08:36:30.577Z,99811.81
2022-12-14T08:39:00.520Z,99819.56
2022-12-14T08:41:29.219Z,99810.97
2022-12-14T08:43:58.933Z,99816.72
2022-12-14T08:46:28.703Z,99815.69
2022-12-14T08:48:56.522Z,99811.44
2022-12-14T08:51:25.554Z,99820.28
2022-12-14T08:53:53.485Z,99812.75
2022-12-14T08:56:24.130Z,99819.75
2022-12-14T08:58:52.217Z,99819.25
2022-12-14T09:01:30.020Z,99825.03
2022-12-14T09:04:06.722Z,99826.91
2022-12-14T09:06:37.159Z,99821.81
2022-12-14T09:09:08.179Z,99831.06
2022-12-14T09:11:37.944Z,99829.38
2022-12-14T09:14:05.030Z,99822.88
2022-12-14T09:16:31.878Z,99827.38
2022-12-14T09:18:59.115Z,99836.84
2022-12-14T09:21:26.163Z,99838.16
2022-12-14T09:23:58.938Z,99840.59
2022-12-14T09:26:26.313Z,99845.13
2022-12-14T09:28:55.814Z,99848.34
2022-12-14T09:31:25.693Z,99852.03
2022-12-14T09:33:53.345Z,99853.91
2022-12-14T09:36:24.602Z,99856.38
2022-12-14T09:38:55.528Z,99856.00
2022-12-14T09:41:35.640Z,99861.13
2022-12-14T09:44:25.105Z,99856.75
2022-12-14T09:46:54.947Z,99865.38
2022-12-14T09:49:30.538Z,99868.00
2022-12-14T09:52:07.338Z,99866.19
2022-12-14T09:54:38.995Z,99864.91
2022-12-14T09:57:25.037Z,99861.69
2022-12-14T09:59:56.627Z,99866.97
2022-12-14T10:03:06.984Z,99865.66
2022-12-14T10:05:36.823Z,99870.41
2022-12-14T10:08:19.023Z,99867.38
2022-12-14T10:11:35.229Z,99876.34
2022-12-14T10:14:18.122Z,99879.75
2022-12-14T10:17:20.263Z,99870.19
2022-12-14T10:19:57.783Z,99876.91
2022-12-14T10:22:47.425Z,99881.63
2022-12-14T10:25:21.011Z,99882.94
2022-12-14T10:28:10.908Z,99880.94
2022-12-14T10:30:38.798Z,99872.19
2022-12-14T10:33:20.636Z,99875.19
2022-12-14T10:35:54.275Z,99880.72
2022-12-14T10:38:24.065Z,99880.63
2022-12-14T10:40:58.993Z,99890.16
2022-12-14T10:44:07.534Z,99885.84
2022-12-14T10:47:13.489Z,99881.88
2022-12-14T10:49:58.065Z,99891.78
2022-12-14T10:52:31.573Z,99893.72
2022-12-14T10:55:11.237Z,99884.75
2022-12-14T10:57:37.995Z,99888.06
2022-12-14T11:00:18.512Z,99888.41
2022-12-14T11:02:54.621Z,99894.56
2022-12-14T11:05:41.616Z,99897.84
2022-12-14T11:08:09.317Z,99885.56
2022-12-14T11:10:39.941Z,99887.47
2022-12-14T11:13:17.898Z,99892.47
2022-12-14T11:15:53.699Z,99896.16
2022-12-14T11:18:20.678Z,99890.56
2022-12-14T11:20:53.899Z,99883.47
2022-12-14T11:23:41.129Z,99893.13
2022-12-14T11:26:25.814Z,99886.84
2022-12-14T11:28:56.035Z,99888.56
2022-12-14T11:31:43.864Z,99887.50
2022-12-14T11:34:39.425Z,99885.91
2022-12-14T11:37:21.635Z,99876.16
2022-12-14T11:39:56.734Z,99877.03
2022-12-14T11:42:24.738Z,99887.97
2022-12-14T11:44:52.514Z,99893.06
2022-12-14T11:47:26.495Z,99892.75
2022-12-14T11:49:55.110Z,99887.38
2022-12-14T11:52:43.102Z,99884.50
2022-12-14T11:55:19.225Z,99887.28
2022-12-14T11:57:55.763Z,99887.16
2022-12-14T12:00:29.471Z,99879.84
2022-12-14T12:03:02.327Z,99881.66
2022-12-14T12:05:33.907Z,99874.88
2022-12-14T12:08:02.986Z,99865.97
2022-12-14T12:10:41.745Z,99865.97
2022-12-14T12:13:35.635Z,99865.22
2022-12-14T12:16:13.713Z,99869.47
2022-12-14T12:18:55.757Z,99864.28
2022-12-14T12:21:32.044Z,99869.91
2022-12-14T12:24:10.786Z,99871.91
2022-12-14T12:26:42.879Z,99873.31
2022-12-14T12:29:19.876Z,99875.00
2022-12-14T12:32:24.956Z,99868.47
2022-12-14T12:35:04.102Z,99863.81
2022-12-14T12:37:41.681Z,99864.53
2022-12-14T12:40:38.139Z,99868.88
2022-12-14T12:43:38.324Z,99870.16
2022-12-14T12:47:14.970Z,99876.13
2022-12-14T12:49:33.739Z,99871.66
2022-12-14T12:52:05.046Z,99874.84
2022-12-14T12:54:38.100Z,99871.78
2022-12-14T12:57:09.018Z,99870.84
2022-12-14T12:59:45.795Z,99868.94
2022-12-14T13:02:36.359Z,99863.53
2022-12-14T13:05:44.338Z,99865.13
2022-12-14T13:08:07.160Z,99864.81
2022-12-14T13:11:24.046Z,99866.41
2022-12-14T13:13:35.614Z,99869.59
2022-12-14T13:16:14.669Z,99865.75
2022-12-14T13:19:08.935Z,99862.78
2022-12-14T13:21:50.038Z,99867.97
2022-12-14T13:24:20.295Z,99861.50
2022-12-14T13:27:18.210Z,99858.56
2022-12-14T13:30:23.328Z,99871.03
2022-12-14T13:33:01.851Z,99857.56
2022-12-14T13:36:20.931Z,99866.56
2022-12-14T13:39:25.005Z,99862.53
2022-12-14T13:42:08.371Z,99874.41
2022-12-14T13:45:06.015Z,99869.63
2022-12-14T13:47:48.792Z,99857.00
2022-12-14T13:50:36.530Z,99861.75
2022-12-14T13:53:11.499Z,99855.00
2022-12-14T13:55:47.818Z,99859.91
2022-12-14T13:58:18.986Z,99853.72
2022-12-14T14:00:45.831Z,99865.09
2022-12-14T14:03:36.291Z,99856.28
2022-12-14T14:06:12.202Z,99859.34
2022-12-14T14:08:44.240Z,99866.13
2022-12-14T14:11:39.227Z,99868.88
2022-12-14T14:14:22.782Z,99864.19
2022-12-14T14:16:58.179Z,99860.59
2022-12-14T14:19:28.209Z,99862.38
2022-12-14T14:22:29.761Z,99859.88
2022-12-14T14:25:10.102Z,99857.06
2022-12-14T14:27:42.294Z,99857.31
2022-12-14T14:30:56.804Z,99856.59
2022-12-14T14:33:47.348Z,99855.59
2022-12-14T14:36:30.654Z,99863.81
2022-12-14T14:39:01.834Z,99868.34
2022-12-14T14:41:38.632Z,99874.53
2022-12-14T14:44:19.612Z,99875.59
2022-12-14T14:46:49.673Z,99875.59
2022-12-14T14:49:32.199Z,99875.84
2022-12-14T14:52:37.490Z,99875.31
2022-12-14T14:55:51.856Z,99883.28
2022-12-14T14:58:42.472Z,99877.34
2022-12-14T15:01:20.656Z,99884.47
2022-12-14T15:04:05.047Z,99890.94
2022-12-14T15:06:40.310Z,99896.25
2022-12-14T15:09:10.138Z,99903.59
2022-12-14T15:11:51.459Z,99900.31
2022-12-14T15:14:48.760Z,99907.53
2022-12-14T15:17:23.836Z,99911.38
2022-12-14T15:20:02.854Z,99906.38
2022-12-14T15:22:43.171Z,99915.41
2022-12-14T15:25:33.647Z,99904.88
2022-12-14T15:28:10.230Z,99905.22
2022-12-14T15:30:37.275Z,99913.28
2022-12-14T15:33:09.501Z,99910.94
2022-12-14T15:35:40.998Z,99916.25
2022-12-14T15:38:31.169Z,99917.75
2022-12-14T15:41:02.351Z,99911.38
2022-12-14T15:43:29.682Z,99915.41
2022-12-14T15:46:04.335Z,99923.59
2022-12-14T15:48:34.692Z,99920.31
2022-12-14T15:51:14.247Z,99918.59
2022-12-14T15:53:50.580Z,99919.00
2022-12-14T15:56:38.000Z,99933.22
2022-12-14T15:59:22.981Z,99924.50
2022-12-14T16:02:01.394Z,99937.25
2022-12-14T16:04:32.594Z,99933.97
2022-12-14T16:07:22.463Z,99940.41
2022-12-14T16:09:55.327Z,99938.06
2022-12-14T16:12:34.517Z,99933.94
2022-12-14T16:15:06.142Z,99935.84
2022-12-14T16:17:36.350Z,99941.44
2022-12-14T16:20:29.752Z,99930.31
2022-12-14T16:23:15.709Z,99933.16
2022-12-14T16:25:58.856Z,99942.47
2022-12-14T16:28:37.288Z,99944.38
2022-12-14T16:31:13.294Z,99955.16
2022-12-14T16:33:43.056Z,99948.09
2022-12-14T16:36:24.493Z,99948.38
2022-12-14T16:39:06.947Z,99953.03
2022-12-14T16:42:01.419Z,99961.19
2022-12-14T16:44:31.647Z,99958.63
2022-12-14T16:47:01.505Z,99946.53
2022-12-14T16:49:32.506Z,99948.22
2022-12-14T16:52:17.572Z,99954.78
2022-12-14T16:55:13.475Z,99954.91
2022-12-14T16:57:47.763Z,99952.44
2022-12-14T17:00:29.674Z,99952.72
2022-12-14T17:03:25.869Z,99965.22
2022-12-14T17:05:57.398Z,99966.47
2022-12-14T17:08:24.508Z,99972.91
2022-12-14T17:10:51.519Z,99971.59
2022-12-14T17:13:18.988Z,99969.34
2022-12-14T17:16:06.268Z,99972.38
2022-12-14T17:18:38.638Z,99972.78
2022-12-14T17:21:08.747Z,99976.44
2022-12-14T17:23:40.319Z,99982.97
2022-12-14T17:26:07.122Z,99977.97
2022-12-14T17:28:34.917Z,99974.66
2022-12-14T17:31:03.610Z,99976.75
2022-12-14T17:33:32.007Z,99984.97
2022-12-14T17:35:59.206Z,99987.03
2022-12-14T17:38:26.285Z,99985.53
2022-12-14T17:40:56.692Z,99996.38
2022-12-14T17:43:27.974Z,99993.09
2022-12-14T17:45:55.483Z,99989.03
2022-12-14T17:48:22.427Z,99998.06
2022-12-14T17:50:50.408Z,100005.25
2022-12-14T17:53:30.195Z,100001.00
2022-12-14T17:55:57.466Z,99998.44
2022-12-14T17:58:24.463Z,100000.34
2022-12-14T18:01:00.501Z,99998.66
2022-12-14T18:03:31.088Z,100011.88
2022-12-14T18:05:59.463Z,100004.13
2022-12-14T18:08:26.975Z,100012.97
2022-12-14T18:11:01.626Z,100014.88
2022-12-14T18:13:31.907Z,100017.72
2022-12-14T18:16:00.666Z,100021.38
2022-12-14T18:18:29.639Z,100023.34
2022-12-14T18:21:02.996Z,100017.50
2022-12-14T18:23:31.721Z,100009.81
2022-12-14T18:26:00.668Z,100016.13
2022-12-14T18:28:27.529Z,100024.06
2022-12-14T18:31:07.597Z,100018.88
2022-12-14T18:33:35.473Z,100023.31
2022-12-14T18:36:02.690Z,100020.91
2022-12-14T18:38:32.537Z,100016.59
2022-12-14T18:41:01.976Z,100018.72
2022-12-14T18:43:30.470Z,100017.03
2022-12-14T18:45:58.844Z,100016.34
2022-12-14T18:48:25.952Z,100017.38
2022-12-14T18:50:54.994Z,100014.91
2022-12-14T18:53:23.973Z,100021.22
2022-12-14T18:55:50.986Z,100016.13
2022-12-14T18:58:27.155Z,100021.50
2022-12-14T19:00:58.483Z,100025.09
2022-12-14T19:03:27.089Z,100022.59
2022-12-14T19:06:34.880Z,100038.53
2022-12-14T19:08:52.031Z,100036.94
2022-12-14T19:11:42.785Z,100031.06
2022-12-14T19:14:10.330Z,100046.91
2022-12-14T19:16:37.305Z,100041.00
2022-12-14T19:19:04.181Z,100042.97
2022-12-14T19:21:31.753Z,100036.16
2022-12-14T19:23:59.919Z,100046.03
2022-12-14T19:26:28.665Z,100051.59
2022-12-14T19:28:56.364Z,100057.03
2022-12-14T19:31:23.488Z,100057.28
2022-12-14T19:33:50.449Z,100061.03
2022-12-14T19:36:17.583Z,100063.84
2022-12-14T19:38:45.008Z,100064.00
2022-12-14T19:41:20.345Z,100061.53
2022-12-14T19:43:48.445Z,100062.66
2022-12-14T19:46:17.696Z,100061.00
2022-12-14T19:48:45.261Z,100070.72
2022-12-14T19:51:13.701Z,100070.88
2022-12-14T19:53:43.020Z,100067.47
2022-12-14T19:56:10.990Z,100062.41
2022-12-14T19:58:39.907Z,100066.88
2022-12-14T20:01:14.380Z,100066.13
2022-12-14T20:03:41.778Z,100074.38
2022-12-14T20:06:10.222Z,100069.09
2022-12-14T20:08:37.531Z,100073.44
2022-12-14T20:11:12.250Z,100082.34
2022-12-14T20:13:42.378Z,100078.88
2022-12-14T20:16:19.269Z,100074.63
2022-12-14T20:18:48.130Z,100071.91
2022-12-14T20:21:22.214Z,100072.91
2022-12-14T20:23:54.631Z,100068.47
2022-12-14T20:26:23.880Z,100069.50
2022-12-14T20:28:54.705Z,100064.28
2022-12-14T20:31:23.047Z,100079.13
2022-12-14T20:33:50.681Z,100080.06
2022-12-14T20:36:19.366Z,100089.00
2022-12-14T20:38:49.354Z,100087.34
2022-12-14T20:41:17.746Z,100085.59
2022-12-14T20:43:49.094Z,100078.72
2022-12-14T20:46:39.226Z,100081.56
2022-12-14T20:49:18.749Z,100084.19
2022-12-14T20:51:49.627Z,100082.47
2022-12-14T20:54:23.284Z,100079.91
2022-12-14T20:56:51.325Z,100080.00
2022-12-14T20:59:18.368Z,100075.66
2022-12-14T21:01:51.866Z,100086.28
2022-12-14T21:04:22.536Z,100083.81
2022-12-14T21:06:49.594Z,100093.50
2022-12-14T21:09:18.140Z,100097.22
2022-12-14T21:12:08.239Z,100100.88
2022-12-14T21:14:39.945Z,100095.69
2022-12-14T21:17:07.208Z,100087.78
2022-12-14T21:19:36.190Z,100093.19
2022-12-14T21:22:06.007Z,100091.66
2022-12-14T21:25:01.934Z,100103.97
2022-12-14T21:27:28.457Z,100090.16
2022-12-14T21:29:55.522Z,100092.03
2022-12-14T21:32:22.943Z,100087.72
2022-12-14T21:34:49.811Z,100087.78
2022-12-14T21:37:16.934Z,100091.41
2022-12-14T21:39:49.040Z,100096.78
2022-12-14T21:42:20.814Z,100102.06
2022-12-14T21:44:50.910Z,100102.97
2022-12-14T21:47:28.250Z,100110.09
2022-12-14T21:49:56.457Z,100103.09
2022-12-14T21:52:27.216Z,100099.88
2022-12-14T21:54:54.301Z,100104.19
2022-12-14T21:57:42.958Z,100105.13
2022-12-14T22:00:17.045Z,100101.81
2022-12-14T22:02:44.510Z,100107.91
2022-12-14T22:05:11.423Z,100114.97
2022-12-14T22:07:38.258Z,100116.00
2022-12-14T22:10:05.985Z,100123.97
2022-12-14T22:12:32.825Z,100111.78
2022-12-14T22:14:59.781Z,100117.03
2022-12-14T22:17:26.972Z,100117.16
2022-12-14T22:19:55.484Z,100119.84
2022-12-14T22:22:23.247Z,100118.19
2022-12-14T22:24:51.598Z,100131.38
2022-12-14T22:27:19.569Z,100129.69
2022-12-14T22:29:46.525Z,100132.53
2022-12-14T22:32:13.517Z,100137.78
2022-12-14T22:34:40.505Z,100126.56
2022-12-14T22:37:07.382Z,100131.91
2022-12-14T22:39:34.647Z,100129.34
2022-12-14T22:42:01.426Z,100131.13
2022-12-14T22:44:28.678Z,100141.81
2022-12-14T22:46:55.594Z,100139.19
2022-12-14T22:49:22.526Z,100133.28
2022-12-14T22:51:50.715Z,100140.41
2022-12-14T22:54:22.646Z,100138.69
2022-12-14T22:57:03.513Z,100136.19
2022-12-14T22:59:48.550Z,100131.84
2022-12-14T23:02:15.862Z,100149.59
2022-12-14T23:04:43.100Z,100138.25
2022-12-14T23:07:10.684Z,100135.84
2022-12-14T23:09:56.194Z,100132.44
2022-12-14T23:12:41.482Z,100127.31
2022-12-14T23:15:27.606Z,100130.00
2022-12-14T23:18:19.493Z,100131.97
2022-12-14T23:21:04.948Z,100135.56
2022-12-14T23:23:50.077Z,100136.56
2022-12-14T23:26:35.688Z,100138.44
2022-12-14T23:29:20.918Z,100136.72
2022-12-14T23:32:06.164Z,100130.66
2022-12-14T23:34:51.620Z,100129.88
2022-12-14T23:37:37.040Z,100133.53
2022-12-14T23:40:23.923Z,100127.47
2022-12-14T23:43:09.126Z,100137.13
2022-12-14T23:45:54.373Z,100132.03
2022-12-14T23:48:40.245Z,100132.94
2022-12-14T23:51:25.543Z,100137.41
2022-12-14T23:54:11.592Z,100131.38
2022-12-14T23:56:56.994Z,100142.91
2022-12-14T23:59:42.538Z,100137.69
